sensor_id;sensor_type;location;lat;lon;timestamp;pressure;altitude;pressure_sealevel;temperature;humidity
11525;BME280;5819;49.648;8.330;2023-11-19T00:01:21;100308.22;;;7.97;100.00
11525;BME280;5819;49.648;8.330;2023-11-19T00:03:49;100304.81;;;7.95;100.00
11525;BME280;5819;49.648;8.330;2023-11-19T00:06:18;100310.00;;;7.95;100.00
11525;BME280;5819;49.648;8.330;2023-11-19T00:08:45;100305.66;;;7.95;100.00
11525;BME280;5819;49.648;8.330;2023-11-19T00:11:14;100303.03;;;7.97;100.00
11525;BME280;5819;49.648;8.330;2023-11-19T00:13:42;100301.31;;;7.97;100.00
11525;BME280;5819;49.648;8.330;2023-11-19T00:16:10;100289.19;;;7.98;100.00
11525;BME280;5819;49.648;8.330;2023-11-19T00:18:40;100292.47;;;8.03;100.00
11525;BME280;5819;49.648;8.330;2023-11-19T00:21:08;100303.78;;;8.00;100.00
11525;BME280;5819;49.648;8.330;2023-11-19T00:23:36;100294.78;;;8.11;100.00
11525;BME280;5819;49.648;8.330;2023-11-19T00:26:04;100310.59;;;8.03;100.00
11525;BME280;5819;49.648;8.330;2023-11-19T00:28:33;100311.41;;;8.05;100.00
11525;BME280;5819;49.648;8.330;2023-11-19T00:31:01;100314.88;;;8.04;100.00
11525;BME280;5819;49.648;8.330;2023-11-19T00:33:30;100314.88;;;8.04;100.00
11525;BME280;5819;49.648;8.330;2023-11-19T00:35:59;100322.66;;;8.04;100.00
11525;BME280;5819;49.648;8.330;2023-11-19T00:38:27;100318.34;;;8.05;100.00
11525;BME280;5819;49.648;8.330;2023-11-19T00:40:54;100325.25;;;8.04;100.00
11525;BME280;5819;49.648;8.330;2023-11-19T00:43:22;100319.19;;;8.05;100.00
11525;BME280;5819;49.648;8.330;2023-11-19T00:45:50;100314.78;;;8.07;100.00
11525;BME280;5819;49.648;8.330;2023-11-19T00:48:18;100324.22;;;8.10;100.00
11525;BME280;5819;49.648;8.330;2023-11-19T00:50:47;100315.63;;;8.08;100.00
11525;BME280;5819;49.648;8.330;2023-11-19T00:53:17;100320.66;;;8.12;100.00
11525;BME280;5819;49.648;8.330;2023-11-19T00:55:44;100308.34;;;8.19;100.00
11525;BME280;5819;49.648;8.330;2023-11-19T00:58:13;100297.97;;;8.19;100.00
11525;BME280;5819;49.648;8.330;2023-11-19T01:00:41;100295.34;;;8.20;100.00
11525;BME280;5819;49.648;8.330;2023-11-19T01:03:09;100305.75;;;8.19;100.00
11525;BME280;5819;49.648;8.330;2023-11-19T01:05:38;100302.28;;;8.20;100.00
11525;BME280;5819;49.648;8.330;2023-11-19T01:08:06;100289.31;;;8.20;100.00
11525;BME280;5819;49.648;8.330;2023-11-19T01:10:37;100306.69;;;8.18;100.00
11525;BME280;5819;49.648;8.330;2023-11-19T01:13:04;100289.38;;;8.18;100.00
11525;BME280;5819;49.648;8.330;2023-11-19T01:15:33;100285.00;;;8.20;100.00
11525;BME280;5819;49.648;8.330;2023-11-19T01:18:01;100304.81;;;8.21;100.00
11525;BME280;5819;49.648;8.330;2023-11-19T01:20:31;100315.13;;;8.23;100.00
11525;BME280;5819;49.648;8.330;2023-11-19T01:23:00;100324.56;;;8.25;100.00
11525;BME280;5819;49.648;8.330;2023-11-19T01:25:28;100309.78;;;8.29;100.00
11525;BME280;5819;49.648;8.330;2023-11-19T01:27:57;100323.66;;;8.26;100.00
11525;BME280;5819;49.648;8.330;2023-11-19T01:30:26;100323.59;;;8.28;100.00
11525;BME280;5819;49.648;8.330;2023-11-19T01:32:53;100301.13;;;8.30;100.00
11525;BME280;5819;49.648;8.330;2023-11-19T01:35:22;100309.78;;;8.29;100.00
11525;BME280;5819;49.648;8.330;2023-11-19T01:37:53;100307.16;;;8.30;100.00
11525;BME280;5819;49.648;8.330;2023-11-19T01:40:21;100301.03;;;8.31;100.00
11525;BME280;5819;49.648;8.330;2023-11-19T01:42:50;100291.53;;;8.32;100.00
11525;BME280;5819;49.648;8.330;2023-11-19T01:45:27;100297.59;;;8.31;100.00
11525;BME280;5819;49.648;8.330;2023-11-19T01:47:57;100313.16;;;8.31;100.00
11525;BME280;5819;49.648;8.330;2023-11-19T01:50:27;100304.59;;;8.29;100.00
11525;BME280;5819;49.648;8.330;2023-11-19T01:52:56;100295.94;;;8.30;100.00
11525;BME280;5819;49.648;8.330;2023-11-19T01:55:25;100283.75;;;8.32;100.00
11525;BME280;5819;49.648;8.330;2023-11-19T01:57:55;100264.72;;;8.33;100.00
11525;BME280;5819;49.648;8.330;2023-11-19T02:00:28;100268.16;;;8.33;100.00
11525;BME280;5819;49.648;8.330;2023-11-19T02:02:56;100269.91;;;8.33;100.00
11525;BME280;5819;49.648;8.330;2023-11-19T02:05:25;100258.72;;;8.31;100.00
11525;BME280;5819;49.648;8.330;2023-11-19T02:07:53;100254.41;;;8.31;100.00
11525;BME280;5819;49.648;8.330;2023-11-19T02:10:21;100246.63;;;8.31;100.00
11525;BME280;5819;49.648;8.330;2023-11-19T02:12:51;100253.38;;;8.35;100.00
11525;BME280;5819;49.648;8.330;2023-11-19T02:15:33;100239.50;;;8.38;100.00
11525;BME280;5819;49.648;8.330;2023-11-19T02:18:18;100236.91;;;8.38;100.00
11525;BME280;5819;49.648;8.330;2023-11-19T02:20:46;100244.19;;;8.52;100.00
11525;BME280;5819;49.648;8.330;2023-11-19T02:23:17;100249.59;;;8.69;100.00
11525;BME280;5819;49.648;8.330;2023-11-19T02:25:51;100244.06;;;8.55;100.00
11525;BME280;5819;49.648;8.330;2023-11-19T02:28:24;100246.59;;;8.56;100.00
11525;BME280;5819;49.648;8.330;2023-11-19T02:30:53;100242.38;;;8.54;100.00
11525;BME280;5819;49.648;8.330;2023-11-19T02:33:21;100242.03;;;8.63;100.00
11525;BME280;5819;49.648;8.330;2023-11-19T02:35:50;100241.16;;;8.64;100.00
11525;BME280;5819;49.648;8.330;2023-11-19T02:38:18;100234.50;;;8.57;100.00
11525;BME280;5819;49.648;8.330;2023-11-19T02:40:48;100235.09;;;8.63;100.00
11525;BME280;5819;49.648;8.330;2023-11-19T02:43:16;100224.44;;;8.71;100.00
11525;BME280;5819;49.648;8.330;2023-11-19T02:45:45;100231.22;;;8.75;100.00
11525;BME280;5819;49.648;8.330;2023-11-19T02:48:13;100221.03;;;8.70;100.00
11525;BME280;5819;49.648;8.330;2023-11-19T02:50:42;100216.78;;;8.68;100.00
11525;BME280;5819;49.648;8.330;2023-11-19T02:53:10;100208.91;;;8.71;100.00
11525;BME280;5819;49.648;8.330;2023-11-19T02:55:39;100199.16;;;8.77;100.00
11525;BME280;5819;49.648;8.330;2023-11-19T02:58:08;100189.47;;;8.82;100.00
11525;BME280;5819;49.648;8.330;2023-11-19T03:00:48;100187.78;;;8.81;100.00
11525;BME280;5819;49.648;8.330;2023-11-19T03:03:21;100185.28;;;8.78;100.00
11525;BME280;5819;49.648;8.330;2023-11-19T03:05:52;100200.50;;;8.87;100.00
11525;BME280;5819;49.648;8.330;2023-11-19T03:08:21;100210.13;;;8.84;100.00
11525;BME280;5819;49.648;8.330;2023-11-19T03:10:50;100212.81;;;8.82;100.00
11525;BME280;5819;49.648;8.330;2023-11-19T03:13:17;100216.06;;;8.87;100.00
11525;BME280;5819;49.648;8.330;2023-11-19T03:15:45;100212.56;;;8.88;100.00
11525;BME280;5819;49.648;8.330;2023-11-19T03:18:15;100208.94;;;8.92;100.00
11525;BME280;5819;49.648;8.330;2023-11-19T03:20:42;100196.84;;;8.93;100.00
11525;BME280;5819;49.648;8.330;2023-11-19T03:23:10;100206.31;;;8.94;100.00
11525;BME280;5819;49.648;8.330;2023-11-19T03:25:38;100193.91;;;9.02;100.00
11525;BME280;5819;49.648;8.330;2023-11-19T03:28:06;100194.75;;;9.03;100.00
11525;BME280;5819;49.648;8.330;2023-11-19T03:30:34;100193.03;;;9.02;100.00
11525;BME280;5819;49.648;8.330;2023-11-19T03:33:03;100185.81;;;9.10;100.00
11525;BME280;5819;49.648;8.330;2023-11-19T03:35:32;100185.19;;;9.03;100.00
11525;BME280;5819;49.648;8.330;2023-11-19T03:38:01;100186.09;;;9.02;100.00
11525;BME280;5819;49.648;8.330;2023-11-19T03:40:29;100195.38;;;9.08;100.00
11525;BME280;5819;49.648;8.330;2023-11-19T03:42:57;100194.75;;;9.03;100.00
11525;BME280;5819;49.648;8.330;2023-11-19T03:45:25;100202.56;;;9.01;100.00
11525;BME280;5819;49.648;8.330;2023-11-19T03:47:53;100198.22;;;9.02;100.00
11525;BME280;5819;49.648;8.330;2023-11-19T03:50:21;100194.66;;;9.04;100.00
11525;BME280;5819;49.648;8.330;2023-11-19T03:52:50;100200.56;;;9.08;100.00
11525;BME280;5819;49.648;8.330;2023-11-19T03:55:18;100197.22;;;9.06;100.00
11525;BME280;5819;49.648;8.330;2023-11-19T03:57:46;100187.72;;;9.05;100.00
11525;BME280;5819;49.648;8.330;2023-11-19T04:00:15;100182.50;;;9.06;100.00
11525;BME280;5819;49.648;8.330;2023-11-19T04:02:44;100177.22;;;9.08;100.00
11525;BME280;5819;49.648;8.330;2023-11-19T04:05:13;100182.50;;;9.06;100.00
11525;BME280;5819;49.648;8.330;2023-11-19T04:07:41;100187.47;;;9.11;100.00
11525;BME280;5819;49.648;8.330;2023-11-19T04:10:10;100183.94;;;9.13;100.00
11525;BME280;5819;49.648;8.330;2023-11-19T04:12:38;100182.84;;;9.19;100.00
11525;BME280;5819;49.648;8.330;2023-11-19T04:15:07;100172.44;;;9.19;100.00
11525;BME280;5819;49.648;8.330;2023-11-19T04:17:35;100182.09;;;9.15;100.00
11525;BME280;5819;49.648;8.330;2023-11-19T04:20:05;100166.97;;;9.26;100.00
11525;BME280;5819;49.648;8.330;2023-11-19T04:22:37;100169.09;;;9.17;100.00
11525;BME280;5819;49.648;8.330;2023-11-19T04:25:06;100170.84;;;9.16;100.00
11525;BME280;5819;49.648;8.330;2023-11-19T04:27:35;100170.09;;;9.13;100.00
11525;BME280;5819;49.648;8.330;2023-11-19T04:30:04;100167.47;;;9.14;100.00
11525;BME280;5819;49.648;8.330;2023-11-19T04:32:36;100157.84;;;9.16;100.00
11525;BME280;5819;49.648;8.330;2023-11-19T04:35:06;100163.84;;;9.18;100.00
11525;BME280;5819;49.648;8.330;2023-11-19T04:37:34;100167.16;;;9.22;100.00
11525;BME280;5819;49.648;8.330;2023-11-19T04:40:02;100173.19;;;9.22;100.00
11525;BME280;5819;49.648;8.330;2023-11-19T04:42:30;100168.06;;;9.21;100.00
11525;BME280;5819;49.648;8.330;2023-11-19T04:45:00;100160.88;;;9.27;100.00
11525;BME280;5819;49.648;8.330;2023-11-19T04:47:28;100160.00;;;9.27;100.00
11525;BME280;5819;49.648;8.330;2023-11-19T04:49:56;100167.03;;;9.25;100.00
11525;BME280;5819;49.648;8.330;2023-11-19T04:52:24;100157.38;;;9.28;100.00
11525;BME280;5819;49.648;8.330;2023-11-19T04:54:52;100178.13;;;9.28;100.00
11525;BME280;5819;49.648;8.330;2023-11-19T04:57:20;100175.34;;;9.33;100.00
11525;BME280;5819;49.648;8.330;2023-11-19T04:59:48;100184.94;;;9.31;100.00
11525;BME280;5819;49.648;8.330;2023-11-19T05:02:17;100183.28;;;9.30;100.00
11525;BME280;5819;49.648;8.330;2023-11-19T05:04:45;100186.72;;;9.30;100.00
11525;BME280;5819;49.648;8.330;2023-11-19T05:07:14;100178.94;;;9.30;100.00
11525;BME280;5819;49.648;8.330;2023-11-19T05:09:41;100175.53;;;9.28;100.00
11525;BME280;5819;49.648;8.330;2023-11-19T05:12:10;100164.19;;;9.31;100.00
11525;BME280;5819;49.648;8.330;2023-11-19T05:14:39;100174.56;;;9.31;100.00
11525;BME280;5819;49.648;8.330;2023-11-19T05:17:06;100177.94;;;9.33;100.00
11525;BME280;5819;49.648;8.330;2023-11-19T05:19:36;100183.00;;;9.36;100.00
11525;BME280;5819;49.648;8.330;2023-11-19T05:22:04;100176.13;;;9.35;100.00
11525;BME280;5819;49.648;8.330;2023-11-19T05:24:32;100172.50;;;9.39;100.00
11525;BME280;5819;49.648;8.330;2023-11-19T05:27:00;100157.72;;;9.41;100.00
11525;BME280;5819;49.648;8.330;2023-11-19T05:29:28;100168.81;;;9.45;100.00
11525;BME280;5819;49.648;8.330;2023-11-19T05:31:56;100167.84;;;9.47;100.00
11525;BME280;5819;49.648;8.330;2023-11-19T05:34:24;100154.81;;;9.49;100.00
11525;BME280;5819;49.648;8.330;2023-11-19T05:36:54;100155.66;;;9.49;100.00
11525;BME280;5819;49.648;8.330;2023-11-19T05:39:22;100152.69;;;9.58;100.00
11525;BME280;5819;49.648;8.330;2023-11-19T05:41:50;100150.34;;;9.72;100.00
11525;BME280;5819;49.648;8.330;2023-11-19T05:44:18;100156.00;;;9.82;100.00
11525;BME280;5819;49.648;8.330;2023-11-19T05:46:46;100150.09;;;9.99;100.00
11525;BME280;5819;49.648;8.330;2023-11-19T05:49:14;100150.00;;;10.00;100.00
11525;BME280;5819;49.648;8.330;2023-11-19T05:51:42;100139.88;;;10.14;100.00
11525;BME280;5819;49.648;8.330;2023-11-19T05:54:11;100138.00;;;10.18;100.00
11525;BME280;5819;49.648;8.330;2023-11-19T05:56:40;100135.06;;;10.25;100.00
11525;BME280;5819;49.648;8.330;2023-11-19T05:59:08;100135.28;;;10.21;100.00
11525;BME280;5819;49.648;8.330;2023-11-19T06:01:42;100127.41;;;10.22;100.00
11525;BME280;5819;49.648;8.330;2023-11-19T06:04:10;100139.22;;;10.29;100.00
11525;BME280;5819;49.648;8.330;2023-11-19T06:06:38;100126.94;;;10.33;100.00
11525;BME280;5819;49.648;8.330;2023-11-19T06:09:07;100131.63;;;10.44;100.00
11525;BME280;5819;49.648;8.330;2023-11-19T06:11:41;100129.72;;;10.47;100.00
11525;BME280;5819;49.648;8.330;2023-11-19T06:14:11;100133.13;;;10.49;100.00
11525;BME280;5819;49.648;8.330;2023-11-19T06:16:38;100139.53;;;10.42;100.00
11525;BME280;5819;49.648;8.330;2023-11-19T06:19:07;100142.53;;;10.52;100.00
11525;BME280;5819;49.648;8.330;2023-11-19T06:21:36;100137.22;;;10.55;100.00
11525;BME280;5819;49.648;8.330;2023-11-19T06:24:04;100137.47;;;10.49;100.00
11525;BME280;5819;49.648;8.330;2023-11-19T06:26:32;100140.44;;;10.41;100.00
11525;BME280;5819;49.648;8.330;2023-11-19T06:29:02;100150.19;;;10.36;100.00
11525;BME280;5819;49.648;8.330;2023-11-19T06:31:29;100151.03;;;10.37;100.00
11525;BME280;5819;49.648;8.330;2023-11-19T06:33:57;100156.38;;;10.33;100.00
11525;BME280;5819;49.648;8.330;2023-11-19T06:36:25;100165.97;;;10.31;100.00
11525;BME280;5819;49.648;8.330;2023-11-19T06:38:54;100152.72;;;10.38;100.00
11525;BME280;5819;49.648;8.330;2023-11-19T06:41:22;100149.06;;;10.42;100.00
11525;BME280;5819;49.648;8.330;2023-11-19T06:43:50;100149.38;;;10.54;100.00
11525;BME280;5819;49.648;8.330;2023-11-19T06:46:20;100158.13;;;10.52;100.00
11525;BME280;5819;49.648;8.330;2023-11-19T06:48:48;100159.69;;;10.56;100.00
11525;BME280;5819;49.648;8.330;2023-11-19T06:51:16;100165.09;;;10.51;100.00
11525;BME280;5819;49.648;8.330;2023-11-19T06:53:44;100147.88;;;10.49;100.00
11525;BME280;5819;49.648;8.330;2023-11-19T06:56:20;100158.44;;;10.46;100.00
11525;BME280;5819;49.648;8.330;2023-11-19T06:58:48;100162.63;;;10.48;100.00
11525;BME280;5819;49.648;8.330;2023-11-19T07:01:17;100155.31;;;10.38;100.00
11525;BME280;5819;49.648;8.330;2023-11-19T07:03:47;100161.38;;;10.38;100.00
11525;BME280;5819;49.648;8.330;2023-11-19T07:06:16;100162.69;;;10.28;100.00
11525;BME280;5819;49.648;8.330;2023-11-19T07:08:44;100161.22;;;10.22;100.00
11525;BME280;5819;49.648;8.330;2023-11-19T07:11:13;100160.38;;;10.22;100.00
11525;BME280;5819;49.648;8.330;2023-11-19T07:13:43;100161.53;;;10.15;100.00
11525;BME280;5819;49.648;8.330;2023-11-19T07:16:14;100152.06;;;10.12;100.00
11525;BME280;5819;49.648;8.330;2023-11-19T07:18:42;100154.09;;;10.06;100.00
11525;BME280;5819;49.648;8.330;2023-11-19T07:21:12;100167.44;;;9.98;100.00
11525;BME280;5819;49.648;8.330;2023-11-19T07:23:40;100173.16;;;10.06;100.00
11525;BME280;5819;49.648;8.330;2023-11-19T07:26:08;100178.81;;;10.16;100.00
11525;BME280;5819;49.648;8.330;2023-11-19T07:28:36;100185.22;;;10.27;100.00
11525;BME280;5819;49.648;8.330;2023-11-19T07:31:07;100184.47;;;10.44;100.00
11525;BME280;5819;49.648;8.330;2023-11-19T07:33:35;100177.13;;;10.72;100.00
11525;BME280;5819;49.648;8.330;2023-11-19T07:36:05;100181.00;;;10.83;100.00
11525;BME280;5819;49.648;8.330;2023-11-19T07:38:35;100182.47;;;10.69;100.00
11525;BME280;5819;49.648;8.330;2023-11-19T07:41:04;100189.22;;;10.73;100.00
11525;BME280;5819;49.648;8.330;2023-11-19T07:43:32;100189.78;;;10.61;100.00
11525;BME280;5819;49.648;8.330;2023-11-19T07:46:00;100188.44;;;10.53;100.00
11525;BME280;5819;49.648;8.330;2023-11-19T07:48:30;100193.28;;;10.42;100.00
11525;BME280;5819;49.648;8.330;2023-11-19T07:50:58;100194.38;;;10.36;100.00
11525;BME280;5819;49.648;8.330;2023-11-19T07:53:26;100201.63;;;10.29;100.00
11525;BME280;5819;49.648;8.330;2023-11-19T07:55:55;100204.06;;;10.32;100.00
11525;BME280;5819;49.648;8.330;2023-11-19T07:58:23;100200.56;;;10.33;100.00
11525;BME280;5819;49.648;8.330;2023-11-19T08:00:50;100202.25;;;10.35;100.00
11525;BME280;5819;49.648;8.330;2023-11-19T08:03:19;100210.56;;;10.43;100.00
11525;BME280;5819;49.648;8.330;2023-11-19T08:05:49;100212.75;;;10.52;100.00
11525;BME280;5819;49.648;8.330;2023-11-19T08:08:17;100213.53;;;10.54;100.00
11525;BME280;5819;49.648;8.330;2023-11-19T08:10:44;100206.50;;;10.56;100.00
11525;BME280;5819;49.648;8.330;2023-11-19T08:13:15;100207.94;;;10.63;100.00
11525;BME280;5819;49.648;8.330;2023-11-19T08:15:46;100218.91;;;10.69;100.00
11525;BME280;5819;49.648;8.330;2023-11-19T08:18:14;100225.34;;;10.79;100.00
11525;BME280;5819;49.648;8.330;2023-11-19T08:20:42;100221.00;;;10.80;100.00
11525;BME280;5819;49.648;8.330;2023-11-19T08:23:11;100217.44;;;10.83;100.00
11525;BME280;5819;49.648;8.330;2023-11-19T08:25:39;100218.00;;;10.70;100.00
11525;BME280;5819;49.648;8.330;2023-11-19T08:28:07;100211.09;;;10.88;100.00
11525;BME280;5819;49.648;8.330;2023-11-19T08:30:36;100198.47;;;11.16;100.00
11525;BME280;5819;49.648;8.330;2023-11-19T08:33:04;100200.06;;;11.38;100.00
11525;BME280;5819;49.648;8.330;2023-11-19T08:35:33;100191.59;;;11.51;100.00
11525;BME280;5819;49.648;8.330;2023-11-19T08:38:01;100192.38;;;11.70;100.00
11525;BME280;5819;49.648;8.330;2023-11-19T08:40:29;100198.69;;;11.84;100.00
11525;BME280;5819;49.648;8.330;2023-11-19T08:42:56;100207.91;;;11.91;100.00
11525;BME280;5819;49.648;8.330;2023-11-19T08:45:25;100221.00;;;11.89;100.00
11525;BME280;5819;49.648;8.330;2023-11-19T08:47:54;100232.81;;;11.60;100.00
11525;BME280;5819;49.648;8.330;2023-11-19T08:50:22;100228.19;;;11.48;100.00
11525;BME280;5819;49.648;8.330;2023-11-19T08:52:50;100234.47;;;11.44;100.00
11525;BME280;5819;49.648;8.330;2023-11-19T08:55:18;100221.84;;;11.54;100.00
11525;BME280;5819;49.648;8.330;2023-11-19T08:57:46;100222.38;;;11.43;100.00
11525;BME280;5819;49.648;8.330;2023-11-19T09:00:14;100237.28;;;11.40;100.00
11525;BME280;5819;49.648;8.330;2023-11-19T09:02:42;100236.47;;;11.39;100.00
11525;BME280;5819;49.648;8.330;2023-11-19T09:05:12;100244.19;;;11.41;100.00
11525;BME280;5819;49.648;8.330;2023-11-19T09:07:40;100232.44;;;11.68;100.00
11525;BME280;5819;49.648;8.330;2023-11-19T09:10:08;100229.44;;;11.77;100.00
11525;BME280;5819;49.648;8.330;2023-11-19T09:12:38;100223.53;;;11.73;100.00
11525;BME280;5819;49.648;8.330;2023-11-19T09:15:06;100215.94;;;11.86;100.00
11525;BME280;5819;49.648;8.330;2023-11-19T09:17:34;100216.41;;;11.77;100.00
11525;BME280;5819;49.648;8.330;2023-11-19T09:20:02;100223.59;;;11.89;100.00
11525;BME280;5819;49.648;8.330;2023-11-19T09:22:31;100217.38;;;11.92;100.00
11525;BME280;5819;49.648;8.330;2023-11-19T09:24:59;100222.25;;;11.99;100.00
11525;BME280;5819;49.648;8.330;2023-11-19T09:27:27;100220.09;;;12.07;100.00
11525;BME280;5819;49.648;8.330;2023-11-19T09:29:55;100211.72;;;12.18;100.00
11525;BME280;5819;49.648;8.330;2023-11-19T09:32:25;100195.28;;;12.16;100.00
11525;BME280;5819;49.648;8.330;2023-11-19T09:34:53;100185.41;;;12.05;100.00
11525;BME280;5819;49.648;8.330;2023-11-19T09:37:21;100181.34;;;12.17;100.00
11525;BME280;5819;49.648;8.330;2023-11-19T09:39:50;100170.91;;;12.50;100.00
11525;BME280;5819;49.648;8.330;2023-11-19T09:42:18;100163.75;;;12.53;100.00
11525;BME280;5819;49.648;8.330;2023-11-19T09:44:47;100154.91;;;12.56;100.00
11525;BME280;5819;49.648;8.330;2023-11-19T09:47:17;100143.13;;;12.49;100.00
11525;BME280;5819;49.648;8.330;2023-11-19T09:49:46;100149.22;;;12.32;100.00
11525;BME280;5819;49.648;8.330;2023-11-19T09:52:16;100146.72;;;12.31;100.00
11525;BME280;5819;49.648;8.330;2023-11-19T09:54:44;100152.63;;;12.34;100.00
11525;BME280;5819;49.648;8.330;2023-11-19T09:57:15;100149.16;;;12.34;100.00
11525;BME280;5819;49.648;8.330;2023-11-19T09:59:45;100139.25;;;12.40;100.00
11525;BME280;5819;49.648;8.330;2023-11-19T10:02:14;100146.50;;;12.35;100.00
11525;BME280;5819;49.648;8.330;2023-11-19T10:04:43;100131.97;;;12.62;100.00
11525;BME280;5819;49.648;8.330;2023-11-19T10:07:13;100137.06;;;12.48;100.00
11525;BME280;5819;49.648;8.330;2023-11-19T10:09:41;100140.88;;;12.43;100.00
11525;BME280;5819;49.648;8.330;2023-11-19T10:12:10;100137.31;;;12.44;100.00
11525;BME280;5819;49.648;8.330;2023-11-19T10:14:39;100128.16;;;12.52;100.00
11525;BME280;5819;49.648;8.330;2023-11-19T10:17:09;100142.94;;;12.36;100.00
11525;BME280;5819;49.648;8.330;2023-11-19T10:19:39;100138.72;;;12.34;100.00
11525;BME280;5819;49.648;8.330;2023-11-19T10:22:08;100128.81;;;12.40;100.00
11525;BME280;5819;49.648;8.330;2023-11-19T10:24:35;100125.03;;;12.46;100.00
11525;BME280;5819;49.648;8.330;2023-11-19T10:27:09;100122.78;;;12.55;100.00
11525;BME280;5819;49.648;8.330;2023-11-19T10:29:36;100113.09;;;12.73;100.00
11525;BME280;5819;49.648;8.330;2023-11-19T10:32:07;100100.44;;;12.97;100.00
11525;BME280;5819;49.648;8.330;2023-11-19T10:34:52;100089.31;;;13.09;100.00
11525;BME280;5819;49.648;8.330;2023-11-19T10:37:29;100084.03;;;13.40;100.00
11525;BME280;5819;49.648;8.330;2023-11-19T10:39:58;100068.47;;;13.53;100.00
11525;BME280;5819;49.648;8.330;2023-11-19T10:42:27;100068.13;;;13.73;100.00
11525;BME280;5819;49.648;8.330;2023-11-19T10:44:54;100054.06;;;13.90;100.00
11525;BME280;5819;49.648;8.330;2023-11-19T10:47:24;100047.69;;;13.94;100.00
11525;BME280;5819;49.648;8.330;2023-11-19T10:49:58;100058.44;;;14.03;100.00
11525;BME280;5819;49.648;8.330;2023-11-19T10:52:27;100052.66;;;13.98;100.00
11525;BME280;5819;49.648;8.330;2023-11-19T10:54:58;100050.25;;;13.95;100.00
11525;BME280;5819;49.648;8.330;2023-11-19T10:57:30;100053.59;;;13.97;100.00
11525;BME280;5819;49.648;8.330;2023-11-19T11:00:01;100049.97;;;14.00;100.00
11525;BME280;5819;49.648;8.330;2023-11-19T11:02:35;100048.16;;;14.15;100.00
11525;BME280;5819;49.648;8.330;2023-11-19T11:05:08;100037.31;;;14.35;100.00
11525;BME280;5819;49.648;8.330;2023-11-19T11:07:39;100036.66;;;14.31;100.00
11525;BME280;5819;49.648;8.330;2023-11-19T11:10:08;100042.94;;;14.15;100.00
11525;BME280;5819;49.648;8.330;2023-11-19T11:12:40;100036.75;;;14.30;100.00
11525;BME280;5819;49.648;8.330;2023-11-19T11:15:10;100034.31;;;14.27;100.00
11525;BME280;5819;49.648;8.330;2023-11-19T11:17:41;100041.16;;;14.43;100.00
11525;BME280;5819;49.648;8.330;2023-11-19T11:20:11;100019.31;;;14.57;100.00
11525;BME280;5819;49.648;8.330;2023-11-19T11:22:46;100020.84;;;14.47;100.00
11525;BME280;5819;49.648;8.330;2023-11-19T11:25:30;100030.47;;;14.46;100.00
11525;BME280;5819;49.648;8.330;2023-11-19T11:28:12;100034.03;;;14.45;100.00
11525;BME280;5819;49.648;8.330;2023-11-19T11:30:54;100036.34;;;14.50;100.00
11525;BME280;5819;49.648;8.330;2023-11-19T11:33:44;100040.09;;;14.46;100.00
11525;BME280;5819;49.648;8.330;2023-11-19T11:36:25;100037.13;;;14.38;100.00
11525;BME280;5819;49.648;8.330;2023-11-19T11:38:58;100036.53;;;14.33;100.00
11525;BME280;5819;49.648;8.330;2023-11-19T11:41:26;100022.97;;;14.55;100.00
11525;BME280;5819;49.648;8.330;2023-11-19T11:43:56;100030.13;;;14.38;100.00
11525;BME280;5819;49.648;8.330;2023-11-19T11:46:54;100033.38;;;14.42;100.00
11525;BME280;5819;49.648;8.330;2023-11-19T11:49:28;100034.50;;;14.52;100.00
11525;BME280;5819;49.648;8.330;2023-11-19T11:52:01;100029.78;;;14.57;100.00
11525;BME280;5819;49.648;8.330;2023-11-19T11:54:31;100031.88;;;14.52;100.00
11525;BME280;5819;49.648;8.330;2023-11-19T11:57:12;100020.16;;;14.58;100.00
11525;BME280;5819;49.648;8.330;2023-11-19T11:59:46;100026.66;;;14.65;100.00
11525;BME280;5819;49.648;8.330;2023-11-19T12:02:16;100022.41;;;14.64;100.00
11525;BME280;5819;49.648;8.330;2023-11-19T12:04:50;100031.09;;;14.64;100.00
11525;BME280;5819;49.648;8.330;2023-11-19T12:07:21;100023.59;;;14.72;100.00
11525;BME280;5819;49.648;8.330;2023-11-19T12:09:52;100021.78;;;14.73;100.00
11525;BME280;5819;49.648;8.330;2023-11-19T12:12:26;100019.00;;;14.88;100.00
11525;BME280;5819;49.648;8.330;2023-11-19T12:15:04;100022.13;;;14.81;100.00
11525;BME280;5819;49.648;8.330;2023-11-19T12:17:42;100023.88;;;14.68;100.00
11525;BME280;5819;49.648;8.330;2023-11-19T12:20:15;100023.34;;;14.48;100.00
11525;BME280;5819;49.648;8.330;2023-11-19T12:23:04;100039.63;;;14.25;100.00
11525;BME280;5819;49.648;8.330;2023-11-19T12:25:35;100031.06;;;14.09;100.00
11525;BME280;5819;49.648;8.330;2023-11-19T12:28:03;100037.53;;;14.03;100.00
11525;BME280;5819;49.648;8.330;2023-11-19T12:30:32;100037.06;;;14.11;100.00
11525;BME280;5819;49.648;8.330;2023-11-19T12:33:00;100029.72;;;14.30;100.00
11525;BME280;5819;49.648;8.330;2023-11-19T12:35:40;100014.84;;;14.45;100.00
11525;BME280;5819;49.648;8.330;2023-11-19T12:38:17;100011.38;;;14.59;100.00
11525;BME280;5819;49.648;8.330;2023-11-19T12:40:45;100002.91;;;14.41;100.00
11525;BME280;5819;49.648;8.330;2023-11-19T12:43:21;99987.25;;;14.53;100.00
11525;BME280;5819;49.648;8.330;2023-11-19T12:45:49;99980.84;;;14.45;100.00
11525;BME280;5819;49.648;8.330;2023-11-19T12:48:17;99990.00;;;14.52;99.66
11525;BME280;5819;49.648;8.330;2023-11-19T12:50:53;99985.53;;;14.67;97.26
11525;BME280;5819;49.648;8.330;2023-11-19T12:53:21;99980.13;;;14.43;99.29
11525;BME280;5819;49.648;8.330;2023-11-19T12:55:50;99979.91;;;14.46;100.00
11525;BME280;5819;49.648;8.330;2023-11-19T12:58:31;99981.44;;;14.36;100.00
11525;BME280;5819;49.648;8.330;2023-11-19T13:01:00;99969.06;;;14.52;98.17
11525;BME280;5819;49.648;8.330;2023-11-19T13:03:29;99970.38;;;14.45;98.47
11525;BME280;5819;49.648;8.330;2023-11-19T13:06:04;99963.16;;;14.48;97.43
11525;BME280;5819;49.648;8.330;2023-11-19T13:08:39;99968.38;;;14.48;97.01